Time;durP1;ratioP1;P1;durP2;ratioP2;P2;SDS_P1;SDS_P2;PMS_P1;PMS_P2;Temp;Humidity;BMP_temperature;BMP_pressure;BME280_temperature;BME280_humidity;BME280_pressure;Samples;Min_cycle;Max_cycle;Signal;HPM_P1;HPM_P2
2021/05/09 00:05:33;;;;;;;5.82;3.40;;;21.60;34.70;;;;;;20911530;28;20052;-62
2021/05/09 00:15:34;;;;;;;5.95;3.28;;;21.50;34.10;;;;;;20923564;28;20410;-60
2021/05/09 00:25:35;;;;;;;6.85;3.65;;;21.40;35.10;;;;;;20938731;28;20068;-61
2021/05/09 00:35:37;;;;;;;6.88;3.30;;;21.40;34.70;;;;;;20921398;28;20140;-59
2021/05/09 00:45:38;;;;;;;6.55;2.72;;;21.20;34.70;;;;;;20921657;28;20049;-60
2021/05/09 00:55:41;;;;;;;5.30;2.30;;;21.30;34.50;;;;;;20921108;28;20139;-61
2021/05/09 01:05:42;;;;;;;5.20;2.57;;;21.20;34.70;;;;;;20919161;28;20080;-60
2021/05/09 01:15:43;;;;;;;8.88;2.75;;;21.10;35.00;;;;;;20919533;28;20175;-60
2021/05/09 01:25:44;;;;;;;5.15;2.63;;;20.90;35.70;;;;;;20917256;28;20100;-62
2021/05/09 01:35:47;;;;;;;5.18;2.75;;;21.10;35.80;;;;;;20918526;28;20580;-61
2021/05/09 01:45:48;;;;;;;7.03;3.30;;;21.00;36.30;;;;;;20917471;28;20120;-61
2021/05/09 01:55:49;;;;;;;6.93;2.72;;;21.00;36.60;;;;;;20916349;28;20045;-61
2021/05/09 02:05:50;;;;;;;9.32;3.00;;;21.10;37.10;;;;;;20915721;28;20045;-62
2021/05/09 02:15:51;;;;;;;7.60;2.88;;;21.10;37.50;;;;;;20914439;28;20084;-60
2021/05/09 02:25:53;;;;;;;6.43;2.42;;;21.10;37.70;;;;;;20913743;28;20076;-62
2021/05/09 02:35:54;;;;;;;5.68;2.38;;;21.20;37.90;;;;;;20913402;28;20084;-61
2021/05/09 02:45:55;;;;;;;7.30;2.42;;;21.20;37.90;;;;;;20912325;28;20041;-62
2021/05/09 02:55:57;;;;;;;5.10;2.33;;;21.10;37.80;;;;;;20911665;28;20096;-60
2021/05/09 03:05:58;;;;;;;5.20;1.95;;;21.10;38.00;;;;;;20911703;28;20135;-60
2021/05/09 03:16:00;;;;;;;6.10;2.20;;;21.10;38.00;;;;;;20911805;28;20083;-62
2021/05/09 03:26:01;;;;;;;4.93;2.33;;;21.00;38.20;;;;;;20911400;28;20413;-61
2021/05/09 03:36:03;;;;;;;4.47;2.00;;;21.00;38.20;;;;;;20910803;28;20111;-61
2021/05/09 03:46:04;;;;;;;6.53;2.20;;;21.00;38.70;;;;;;20921807;28;20081;-60
2021/05/09 03:56:06;;;;;;;5.15;2.35;;;21.00;38.90;;;;;;20925887;28;20048;-61
2021/05/09 04:06:07;;;;;;;7.78;2.03;;;21.10;42.70;;;;;;20924049;28;20508;-60
2021/05/09 04:16:08;;;;;;;4.60;2.00;;;21.00;43.90;;;;;;20924562;28;20060;-59
2021/05/09 04:26:09;;;;;;;7.22;2.47;;;20.90;47.30;;;;;;20923500;28;20390;-61
2021/05/09 04:36:12;;;;;;;4.00;2.35;;;20.80;46.30;;;;;;20922266;28;20136;-62
2021/05/09 04:46:13;;;;;;;6.13;2.28;;;20.70;46.80;;;;;;20922125;28;20106;-60
2021/05/09 04:56:17;;;;;;;5.15;2.35;;;20.60;46.50;;;;;;20935181;28;20060;-61
2021/05/09 05:06:18;;;;;;;5.05;2.30;;;20.60;46.50;;;;;;20921182;28;20489;-61
2021/05/09 05:16:21;;;;;;;6.30;3.33;;;20.50;47.20;;;;;;20922086;28;20537;-60
2021/05/09 05:26:23;;;;;;;6.90;2.60;;;20.30;48.50;;;;;;20936653;28;20057;-61
2021/05/09 05:36:24;;;;;;;6.45;3.08;;;20.20;49.60;;;;;;20919502;28;20056;-61
2021/05/09 05:46:29;;;;;;;5.82;2.65;;;19.90;51.40;;;;;;20917913;28;20077;-61
2021/05/09 05:56:31;;;;;;;6.70;2.60;;;19.70;53.00;;;;;;20916648;28;20056;-62
2021/05/09 06:06:32;;;;;;;4.63;2.60;;;19.60;53.40;;;;;;20915747;28;20480;-61
2021/05/09 06:16:33;;;;;;;11.40;4.95;;;19.60;53.70;;;;;;20915270;28;20053;-62
2021/05/09 06:26:34;;;;;;;10.38;3.85;;;19.60;55.20;;;;;;20914265;28;20532;-61
2021/05/09 06:36:35;;;;;;;9.65;4.03;;;19.60;58.20;;;;;;20913733;28;20053;-59
2021/05/09 06:46:37;;;;;;;7.30;4.15;;;19.60;58.80;;;;;;20913019;28;20049;-60
2021/05/09 06:56:38;;;;;;;10.95;4.30;;;19.40;61.40;;;;;;20927544;28;20102;-61
2021/05/09 07:06:39;;;;;;;8.23;3.90;;;19.40;60.10;;;;;;20912175;28;20060;-61
2021/05/09 07:16:41;;;;;;;7.10;3.08;;;19.60;60.50;;;;;;20914943;28;20056;-62
2021/05/09 07:26:43;;;;;;;7.75;2.88;;;19.70;59.00;;;;;;20926686;28;20053;-62
2021/05/09 07:36:44;;;;;;;7.40;2.72;;;19.80;55.50;;;;;;20927480;28;20551;-60
2021/05/09 07:46:45;;;;;;;9.00;3.10;;;20.10;52.40;;;;;;20926757;28;20067;-61
2021/05/09 07:56:46;;;;;;;8.70;3.67;;;20.20;51.10;;;;;;20925528;28;20135;-59
2021/05/09 08:06:48;;;;;;;8.02;3.30;;;20.30;51.20;;;;;;20924693;28;20044;-60
2021/05/09 08:16:49;;;;;;;10.25;3.00;;;20.50;51.10;;;;;;20924270;28;20064;-60
2021/05/09 08:26:51;;;;;;;8.93;3.20;;;21.00;49.90;;;;;;20923394;28;20052;-62
2021/05/09 08:36:52;;;;;;;9.30;3.43;;;21.10;48.50;;;;;;20922928;28;20056;-59
2021/05/09 08:46:55;;;;;;;6.72;2.95;;;20.90;48.40;;;;;;20922632;28;20444;-59
2021/05/09 08:56:56;;;;;;;10.23;3.80;;;21.00;48.40;;;;;;20921608;28;20481;-60
2021/05/09 09:07:01;;;;;;;9.75;4.25;;;20.90;47.70;;;;;;20920500;28;20045;-62
2021/05/09 09:17:13;;;;;;;8.48;5.28;;;20.80;48.10;;;;;;20919620;28;20075;-61
2021/05/09 09:27:27;;;;;;;7.95;3.20;;;21.00;45.90;;;;;;20919602;28;20060;-60
2021/05/09 09:37:33;;;;;;;16.67;9.82;;;21.20;44.40;;;;;;20917954;28;20045;-60
2021/05/09 09:48:02;;;;;;;8.18;2.58;;;21.40;43.10;;;;;;20917001;28;20059;-59
2021/05/09 09:58:04;;;;;;;9.13;2.53;;;21.60;42.70;;;;;;20915077;28;20057;-60
2021/05/09 10:08:08;;;;;;;7.73;2.47;;;21.40;43.70;;;;;;20915936;28;20045;-62
2021/05/09 10:18:12;;;;;;;7.25;2.42;;;21.30;44.40;;;;;;20914246;28;20053;-61
2021/05/09 10:28:16;;;;;;;12.15;2.70;;;21.50;43.70;;;;;;20913325;28;20053;-61
2021/05/09 10:38:17;;;;;;;9.63;2.47;;;21.60;43.90;;;;;;20911658;28;20049;-62
2021/05/09 10:48:22;;;;;;;9.02;2.90;;;21.60;44.70;;;;;;20910998;28;20086;-62
2021/05/09 10:58:50;;;;;;;12.40;3.28;;;21.50;46.20;;;;;;20912809;28;20497;-61
2021/05/09 11:08:58;;;;;;;8.82;2.95;;;21.60;45.90;;;;;;20913026;28;20532;-60
2021/05/09 11:19:06;;;;;;;9.57;3.17;;;21.70;43.20;;;;;;20939916;28;20060;-61
2021/05/09 11:29:12;;;;;;;8.52;2.80;;;21.90;41.60;;;;;;20920180;28;20056;-62
2021/05/09 11:39:33;;;;;;;6.53;2.17;;;22.10;40.80;;;;;;20914361;28;20063;-61
2021/05/09 11:49:36;;;;;;;5.80;2.30;;;22.10;40.50;;;;;;20908660;28;20498;-63
2021/05/09 11:59:57;;;;;;;8.80;5.07;;;22.00;39.30;;;;;;20910017;28;20053;-62
2021/05/09 12:10:05;;;;;;;5.00;2.17;;;22.20;37.90;;;;;;20924737;28;20049;-61
2021/05/09 12:20:06;;;;;;;4.35;2.00;;;22.40;35.30;;;;;;20923531;28;20115;-60
2021/05/09 12:30:08;;;;;;;4.47;2.28;;;22.60;36.50;;;;;;20923155;28;20057;-61
2021/05/09 12:40:31;;;;;;;4.93;1.98;;;22.60;35.40;;;;;;20922954;28;20454;-61
2021/05/09 12:50:44;;;;;;;4.88;1.85;;;22.40;35.00;;;;;;20921630;28;20107;-59
2021/05/09 13:00:46;;;;;;;4.55;1.75;;;22.00;34.40;;;;;;20921382;28;20057;-61
2021/05/09 13:10:47;;;;;;;5.07;1.73;;;21.50;35.90;;;;;;20920577;28;20045;-60
2021/05/09 13:20:49;;;;;;;6.10;1.55;;;20.70;42.90;;;;;;20918994;28;20052;-60
2021/05/09 13:30:51;;;;;;;6.70;2.03;;;20.20;45.80;;;;;;20918710;28;20056;-62
2021/05/09 13:40:52;;;;;;;5.15;1.55;;;19.40;49.00;;;;;;20918207;28;20057;-61
2021/05/09 13:50:53;;;;;;;5.55;2.47;;;18.70;51.90;;;;;;20917167;28;20084;-61
2021/05/09 14:00:54;;;;;;;6.38;2.80;;;18.40;55.10;;;;;;20916925;28;20057;-59
2021/05/09 14:10:56;;;;;;;8.77;5.10;;;17.80;58.00;;;;;;20916942;28;20114;-59
2021/05/09 14:20:57;;;;;;;9.05;5.25;;;17.60;58.70;;;;;;20915344;28;20053;-60
2021/05/09 14:30:58;;;;;;;16.35;11.02;;;17.30;59.70;;;;;;20913855;28;20102;-62
2021/05/09 14:41:01;;;;;;;20.55;12.45;;;16.90;61.30;;;;;;20913151;28;20052;-60
2021/05/09 14:51:02;;;;;;;13.73;8.98;;;16.70;62.60;;;;;;20913275;28;20087;-61
2021/05/09 15:01:03;;;;;;;5.40;3.00;;;16.50;64.20;;;;;;20912432;28;20056;-61
2021/05/09 15:11:05;;;;;;;3.00;1.90;;;16.70;63.60;;;;;;20912491;28;20049;-60
2021/05/09 15:21:06;;;;;;;5.53;2.25;;;16.90;64.10;;;;;;20911818;28;20052;-60
2021/05/09 15:31:08;;;;;;;4.20;1.80;;;17.00;64.40;;;;;;20911333;28;20048;-62
2021/05/09 15:41:09;;;;;;;3.80;2.22;;;17.50;63.20;;;;;;20920215;28;20049;-60
2021/05/09 15:51:11;;;;;;;3.05;1.67;;;17.60;62.40;;;;;;20927146;28;20044;-61
2021/05/09 16:01:13;;;;;;;3.00;1.85;;;17.50;62.40;;;;;;20927691;28;20060;-61
2021/05/09 16:11:15;;;;;;;3.95;1.70;;;17.40;63.30;;;;;;20925899;28;20056;-62
2021/05/09 16:21:17;;;;;;;2.92;1.70;;;17.40;62.90;;;;;;20941139;28;20064;-62
2021/05/09 16:31:19;;;;;;;2.08;1.33;;;17.60;62.50;;;;;;20925973;28;20045;-61
2021/05/09 16:41:20;;;;;;;2.80;1.67;;;17.90;61.20;;;;;;20922906;28;20049;-62
2021/05/09 16:51:21;;;;;;;3.28;1.50;;;18.00;62.00;;;;;;20921030;28;20053;-63
2021/05/09 17:01:24;;;;;;;4.07;1.40;;;18.10;61.80;;;;;;20936908;28;20110;-62
2021/05/09 17:11:26;;;;;;;3.20;1.50;;;18.00;62.90;;;;;;20921784;28;20467;-61
2021/05/09 17:21:28;;;;;;;5.40;1.90;;;17.80;63.30;;;;;;20919958;28;20049;-61
2021/05/09 17:31:29;;;;;;;8.02;2.53;;;17.90;62.30;;;;;;20918888;28;20052;-62
2021/05/09 17:41:30;;;;;;;3.75;1.60;;;17.70;65.50;;;;;;20918265;28;20124;-60
2021/05/09 17:51:31;;;;;;;3.00;1.00;;;17.40;65.40;;;;;;20917202;28;20056;-60
2021/05/09 18:01:33;;;;;;;4.03;0.90;;;17.20;64.50;;;;;;20916184;28;20501;-65
2021/05/09 18:11:34;;;;;;;3.35;1.75;;;17.10;64.50;;;;;;20914976;28;20053;-60
2021/05/09 18:31:55;;;;;;;1.73;0.90;;;17.00;65.80;;;;;;20914329;28;20045;-60
2021/05/09 18:41:57;;;;;;;2.22;0.98;;;16.90;65.60;;;;;;20914176;28;20061;-59
2021/05/09 18:51:58;;;;;;;4.32;1.30;;;17.00;62.90;;;;;;20912992;28;20044;-60
2021/05/09 19:01:59;;;;;;;3.20;2.17;;;17.00;61.30;;;;;;20912412;28;20060;-60
2021/05/09 19:12:00;;;;;;;3.72;1.40;;;16.90;61.80;;;;;;20910254;28;20045;-62
2021/05/09 19:22:02;;;;;;;3.63;1.33;;;16.70;63.10;;;;;;20910883;28;20053;-60
2021/05/09 19:32:03;;;;;;;3.63;1.70;;;16.70;64.10;;;;;;20910486;28;20045;-59
2021/05/09 19:42:05;;;;;;;3.75;1.60;;;16.60;64.80;;;;;;20910024;28;20057;-59
2021/05/09 19:52:06;;;;;;;3.47;1.40;;;16.50;65.20;;;;;;20910009;28;20053;-59
2021/05/09 20:02:07;;;;;;;2.33;1.25;;;16.30;66.30;;;;;;20911776;28;20081;-61
2021/05/09 20:12:09;;;;;;;1.90;1.50;;;16.30;66.20;;;;;;20908691;28;20547;-61
2021/05/09 20:22:10;;;;;;;4.53;1.63;;;16.20;66.60;;;;;;20909641;28;20056;-60
2021/05/09 20:32:12;;;;;;;2.67;1.67;;;16.20;66.70;;;;;;20922804;28;20064;-61
2021/05/09 20:42:13;;;;;;;4.15;1.70;;;16.10;66.90;;;;;;20922220;28;20115;-59
2021/05/09 20:52:14;;;;;;;3.03;1.65;;;16.10;67.30;;;;;;20921955;28;20118;-61
2021/05/09 21:02:15;;;;;;;2.17;1.40;;;16.10;67.10;;;;;;20920748;28;20106;-61
2021/05/09 21:12:17;;;;;;;2.78;1.35;;;16.10;66.60;;;;;;20920162;28;20051;-61
2021/05/09 21:22:18;;;;;;;4.65;1.77;;;16.10;65.50;;;;;;20919243;28;20136;-60
2021/05/09 21:32:19;;;;;;;5.95;1.80;;;16.10;66.00;;;;;;20918798;28;20409;-60
2021/05/09 21:42:20;;;;;;;2.08;1.20;;;16.20;66.40;;;;;;20916573;28;20045;-61
2021/05/09 21:52:22;;;;;;;4.07;1.42;;;16.20;66.10;;;;;;20917325;28;20048;-59
2021/05/09 22:02:25;;;;;;;40.42;7.57;;;16.20;65.80;;;;;;20916691;28;20068;-59
2021/05/09 22:12:26;;;;;;;1.97;1.20;;;16.10;69.60;;;;;;20916526;28;20052;-60
2021/05/09 22:22:29;;;;;;;3.50;1.17;;;16.00;68.60;;;;;;20915982;28;20481;-60
2021/05/09 22:32:30;;;;;;;1.80;0.90;;;15.90;64.30;;;;;;20914165;28;20378;-59
2021/05/09 22:42:31;;;;;;;1.73;1.00;;;15.80;64.10;;;;;;20914142;28;20056;-61
2021/05/09 22:52:33;;;;;;;1.95;0.75;;;15.70;63.00;;;;;;20912399;28;20429;-60
2021/05/09 23:02:34;;;;;;;5.18;1.25;;;15.60;60.40;;;;;;20912753;28;20057;-60
2021/05/09 23:12:35;;;;;;;1.90;1.08;;;15.50;59.80;;;;;;20911598;28;20041;-61
2021/05/09 23:22:36;;;;;;;2.42;1.27;;;15.40;60.20;;;;;;20911089;28;20056;-59
2021/05/09 23:32:38;;;;;;;2.80;1.35;;;15.40;63.40;;;;;;20910561;28;20081;-59
2021/05/09 23:42:39;;;;;;;5.25;1.67;;;15.30;66.70;;;;;;20910162;28;20056;-59
2021/05/09 23:52:42;;;;;;;3.30;1.75;;;15.10;67.30;;;;;;20909726;28;20056;-59
